createdAt,value
2018-12-31T00:00:03.831Z,101804.33
2018-12-31T00:02:32.737Z,101801.26
2018-12-31T00:05:02.134Z,101801.70
2018-12-31T00:07:30.530Z,101805.49
2018-12-31T00:09:58.903Z,101805.55
2018-12-31T00:12:27.236Z,101799.59
2018-12-31T00:14:55.573Z,101808.27
2018-12-31T00:17:23.958Z,101802.41
2018-12-31T00:19:52.339Z,101810.12
2018-12-31T00:22:20.671Z,101807.59
2018-12-31T00:24:49.009Z,101803.44
2018-12-31T00:27:17.359Z,101800.19
2018-12-31T00:29:45.684Z,101804.80
2018-12-31T00:32:14.593Z,101808.36
2018-12-31T00:34:42.965Z,101805.56
2018-12-31T00:37:11.321Z,101800.94
2018-12-31T00:39:39.666Z,101801.98
2018-12-31T00:42:08.023Z,101792.84
2018-12-31T00:44:36.360Z,101790.24
2018-12-31T00:47:04.720Z,101795.98
2018-12-31T00:49:33.066Z,101803.34
2018-12-31T00:52:01.392Z,101806.38
2018-12-31T00:54:29.769Z,101807.56
2018-12-31T00:56:58.120Z,101807.30
2018-12-31T00:59:26.489Z,101803.58
2018-12-31T01:01:54.873Z,101798.76
2018-12-31T01:04:23.228Z,101804.65
2018-12-31T01:06:51.554Z,101798.12
2018-12-31T01:09:19.973Z,101797.62
2018-12-31T01:11:48.782Z,101800.00
2018-12-31T01:14:17.379Z,101803.11
2018-12-31T01:16:45.701Z,101795.44
2018-12-31T01:19:14.521Z,101801.27
2018-12-31T01:21:42.867Z,101794.25
2018-12-31T01:24:11.174Z,101805.47
2018-12-31T01:26:39.513Z,101802.87
2018-12-31T01:29:07.873Z,101800.98
2018-12-31T01:31:36.182Z,101801.54
2018-12-31T01:34:04.637Z,101804.52
2018-12-31T01:36:32.974Z,101807.30
2018-12-31T01:39:01.281Z,101813.63
2018-12-31T01:41:29.638Z,101807.24
2018-12-31T01:43:57.989Z,101806.95
2018-12-31T01:46:26.366Z,101809.48
2018-12-31T01:48:54.715Z,101812.14
2018-12-31T01:51:23.031Z,101804.80
2018-12-31T01:53:51.356Z,101803.95
2018-12-31T01:56:19.708Z,101802.09
2018-12-31T01:58:48.041Z,101798.33
2018-12-31T02:01:16.629Z,101803.59
2018-12-31T02:03:44.951Z,101800.98
2018-12-31T02:06:13.773Z,101803.03
2018-12-31T02:08:42.120Z,101796.37
2018-12-31T02:11:10.468Z,101800.92
2018-12-31T02:13:39.641Z,101811.47
2018-12-31T02:16:07.975Z,101810.25
2018-12-31T02:18:36.325Z,101807.24
2018-12-31T02:21:04.721Z,101803.24
2018-12-31T02:23:33.135Z,101805.34
2018-12-31T02:26:01.485Z,101800.52
2018-12-31T02:28:29.856Z,101812.38
2018-12-31T02:30:59.072Z,101810.03
2018-12-31T02:33:27.408Z,101814.41
2018-12-31T02:35:55.750Z,101808.84
2018-12-31T02:38:24.060Z,101804.13
2018-12-31T02:40:52.435Z,101806.53
2018-12-31T02:43:20.903Z,101806.45
2018-12-31T02:45:49.247Z,101804.36
2018-12-31T02:48:18.541Z,101811.79
2018-12-31T02:50:46.885Z,101808.33
2018-12-31T02:53:15.671Z,101806.98
2018-12-31T02:55:44.005Z,101811.84
2018-12-31T02:58:12.618Z,101809.75
2018-12-31T03:00:40.935Z,101808.20
2018-12-31T03:03:09.322Z,101800.19
2018-12-31T03:05:37.687Z,101802.19
2018-12-31T03:08:06.038Z,101795.16
2018-12-31T03:10:34.387Z,101792.02
2018-12-31T03:13:02.816Z,101790.62
2018-12-31T03:15:31.212Z,101789.06
2018-12-31T03:17:59.546Z,101786.66
2018-12-31T03:20:27.872Z,101777.70
2018-12-31T03:22:56.214Z,101777.82
2018-12-31T03:25:24.545Z,101769.25
2018-12-31T03:27:52.898Z,101753.53
2018-12-31T03:30:21.266Z,101750.09
2018-12-31T03:32:49.621Z,101753.46
2018-12-31T03:35:18.443Z,101750.61
2018-12-31T03:37:46.806Z,101756.00
2018-12-31T03:40:15.518Z,101756.38
2018-12-31T03:42:44.025Z,101752.33
2018-12-31T03:45:12.609Z,101747.00
2018-12-31T03:47:41.053Z,101749.95
2018-12-31T03:50:09.369Z,101751.51
2018-12-31T03:52:37.789Z,101749.04
2018-12-31T03:55:06.293Z,101747.80
2018-12-31T03:57:34.730Z,101756.02
2018-12-31T04:00:03.225Z,101756.97
2018-12-31T04:02:31.589Z,101763.84
2018-12-31T04:04:59.938Z,101759.29
2018-12-31T04:07:28.271Z,101761.75
2018-12-31T04:09:56.653Z,101757.34
2018-12-31T04:12:24.984Z,101764.14
2018-12-31T04:14:53.334Z,101767.95
2018-12-31T04:17:22.149Z,101769.05
2018-12-31T04:19:50.510Z,101766.73
2018-12-31T04:22:19.502Z,101763.52
2018-12-31T04:24:47.831Z,101765.27
2018-12-31T04:27:16.193Z,101766.66
2018-12-31T04:29:44.518Z,101766.31
2018-12-31T04:32:13.442Z,101768.08
2018-12-31T04:34:41.758Z,101765.13
2018-12-31T04:37:10.118Z,101766.73
2018-12-31T04:39:38.457Z,101761.54
2018-12-31T04:42:06.813Z,101761.83
2018-12-31T04:44:35.141Z,101764.91
2018-12-31T04:47:03.524Z,101764.80
2018-12-31T04:49:32.006Z,101776.55
2018-12-31T04:52:00.370Z,101771.30
2018-12-31T04:54:28.703Z,101772.69
2018-12-31T04:56:57.058Z,101771.86
2018-12-31T04:59:25.757Z,101761.61
2018-12-31T05:01:54.066Z,101772.97
2018-12-31T05:04:22.415Z,101765.75
2018-12-31T05:06:50.746Z,101770.66
2018-12-31T05:09:19.107Z,101767.42
2018-12-31T05:11:47.447Z,101767.52
2018-12-31T05:14:15.981Z,101776.84
2018-12-31T05:16:44.311Z,101772.30
2018-12-31T05:19:12.774Z,101779.34
2018-12-31T05:21:41.093Z,101786.23
2018-12-31T05:24:09.463Z,101781.53
2018-12-31T05:26:37.798Z,101792.09
2018-12-31T05:29:06.149Z,101788.36
2018-12-31T05:31:34.784Z,101788.92
2018-12-31T05:34:03.154Z,101791.66
2018-12-31T05:36:31.660Z,101792.22
2018-12-31T05:39:00.044Z,101791.66
2018-12-31T05:41:28.372Z,101791.66
2018-12-31T05:43:56.713Z,101799.66
2018-12-31T05:46:25.165Z,101801.41
2018-12-31T05:48:53.513Z,101800.84
2018-12-31T05:51:21.843Z,101805.29
2018-12-31T05:53:50.234Z,101812.13
2018-12-31T05:56:18.586Z,101814.13
2018-12-31T05:58:46.935Z,101816.87
2018-12-31T06:01:15.411Z,101811.29
2018-12-31T06:03:43.789Z,101810.80
2018-12-31T06:06:12.242Z,101813.69
2018-12-31T06:08:40.570Z,101817.69
2018-12-31T06:11:08.901Z,101824.94
2018-12-31T06:13:37.268Z,101815.86
2018-12-31T06:16:05.614Z,101821.36
2018-12-31T06:18:33.961Z,101820.44
2018-12-31T06:21:02.389Z,101818.05
2018-12-31T06:23:30.782Z,101822.53
2018-12-31T06:25:59.122Z,101830.64
2018-12-31T06:28:27.476Z,101825.57
2018-12-31T06:30:56.772Z,101822.70
2018-12-31T06:33:25.122Z,101824.17
2018-12-31T06:35:53.461Z,101818.25
2018-12-31T06:38:21.897Z,101826.91
2018-12-31T06:40:50.324Z,101826.77
2018-12-31T06:43:18.667Z,101827.66
2018-12-31T06:45:47.114Z,101825.98
2018-12-31T06:48:15.440Z,101829.02
2018-12-31T06:50:43.828Z,101835.68
2018-12-31T06:53:12.157Z,101837.66
2018-12-31T06:55:40.624Z,101843.31
2018-12-31T06:58:08.937Z,101845.94
2018-12-31T07:00:37.347Z,101850.98
2018-12-31T07:03:05.676Z,101853.02
2018-12-31T07:05:34.040Z,101857.20
2018-12-31T07:08:02.378Z,101860.27
2018-12-31T07:10:30.733Z,101860.36
2018-12-31T07:12:59.091Z,101854.45
2018-12-31T07:15:27.424Z,101862.27
2018-12-31T07:17:55.746Z,101863.83
2018-12-31T07:20:24.135Z,101864.37
2018-12-31T07:22:52.546Z,101870.58
2018-12-31T07:25:20.889Z,101866.77
2018-12-31T07:27:49.209Z,101876.95
2018-12-31T07:30:18.506Z,101880.45
2018-12-31T07:32:46.849Z,101886.41
2018-12-31T07:35:15.243Z,101882.49
2018-12-31T07:37:43.529Z,101884.02
2018-12-31T07:40:12.155Z,101881.25
2018-12-31T07:42:40.503Z,101880.72
2018-12-31T07:45:09.635Z,101885.34
2018-12-31T07:47:37.985Z,101895.88
2018-12-31T07:50:06.347Z,101903.17
2018-12-31T07:52:34.677Z,101899.03
2018-12-31T07:55:03.163Z,101891.61
2018-12-31T07:57:31.569Z,101901.44
2018-12-31T07:59:59.975Z,101905.53
2018-12-31T08:02:28.333Z,101900.72
2018-12-31T08:04:56.672Z,101901.08
2018-12-31T08:07:24.994Z,101906.91
2018-12-31T08:09:53.365Z,101909.91
2018-12-31T08:12:21.713Z,101901.34
2018-12-31T08:14:50.044Z,101907.20
2018-12-31T08:17:18.405Z,101912.70
2018-12-31T08:19:46.722Z,101905.89
2018-12-31T08:22:15.965Z,101898.60
2018-12-31T08:24:44.289Z,101909.54
2018-12-31T08:27:12.629Z,101907.72
2018-12-31T08:29:40.969Z,101907.11
2018-12-31T08:32:09.637Z,101917.00
2018-12-31T08:34:37.978Z,101917.48
2018-12-31T08:37:06.546Z,101921.72
2018-12-31T08:39:34.848Z,101927.45
2018-12-31T08:42:03.189Z,101916.02
2018-12-31T08:44:31.593Z,101912.30
2018-12-31T08:47:00.008Z,101912.50
2018-12-31T08:49:28.334Z,101915.50
2018-12-31T08:51:56.692Z,101908.86
2018-12-31T08:54:25.064Z,101917.95
2018-12-31T08:56:53.489Z,101916.11
2018-12-31T08:59:21.827Z,101907.73
2018-12-31T09:01:50.191Z,101909.69
2018-12-31T09:04:18.556Z,101915.13
2018-12-31T09:06:46.878Z,101912.13
2018-12-31T09:09:15.209Z,101912.89
2018-12-31T09:11:43.586Z,101912.17
2018-12-31T09:14:11.903Z,101908.74
2018-12-31T09:16:40.290Z,101916.69
2018-12-31T09:19:08.769Z,101912.17
2018-12-31T09:21:37.741Z,101912.27
2018-12-31T09:24:06.105Z,101916.32
2018-12-31T09:26:34.485Z,101911.52
2018-12-31T09:29:02.902Z,101907.41
2018-12-31T09:31:31.247Z,101915.14
2018-12-31T09:33:59.589Z,101912.54
2018-12-31T09:36:27.987Z,101914.70
2018-12-31T09:38:56.305Z,101913.91
2018-12-31T09:41:24.644Z,101914.41
2018-12-31T09:43:52.983Z,101910.60
2018-12-31T09:46:21.338Z,101908.27
2018-12-31T09:48:49.700Z,101919.43
2018-12-31T09:51:18.061Z,101918.03
2018-12-31T09:53:46.396Z,101924.25
2018-12-31T09:56:14.748Z,101919.92
2018-12-31T09:58:43.173Z,101917.46
2018-12-31T10:01:11.542Z,101924.64
2018-12-31T10:03:39.963Z,101916.89
2018-12-31T10:06:08.550Z,101919.50
2018-12-31T10:08:36.898Z,101915.88
2018-12-31T10:11:05.241Z,101920.27
2018-12-31T10:13:33.601Z,101920.41
2018-12-31T10:16:01.939Z,101924.03
2018-12-31T10:18:30.294Z,101923.93
2018-12-31T10:20:58.639Z,101919.57
2018-12-31T10:23:27.021Z,101912.31
2018-12-31T10:25:55.400Z,101916.13
2018-12-31T10:28:23.811Z,101911.55
2018-12-31T10:30:52.155Z,101910.84
2018-12-31T10:33:20.492Z,101898.63
2018-12-31T10:35:48.821Z,101889.19
2018-12-31T10:38:17.597Z,101897.42
2018-12-31T10:40:45.958Z,101896.08
2018-12-31T10:43:14.321Z,101896.95
2018-12-31T10:45:42.670Z,101894.77
2018-12-31T10:48:11.016Z,101893.89
2018-12-31T10:50:39.354Z,101890.64
2018-12-31T10:53:07.886Z,101889.30
2018-12-31T10:55:36.243Z,101883.94
2018-12-31T10:58:04.567Z,101875.53
2018-12-31T11:00:33.552Z,101877.27
2018-12-31T11:03:02.383Z,101871.22
2018-12-31T11:05:31.576Z,101863.91
2018-12-31T11:08:00.890Z,101856.64
2018-12-31T11:10:29.933Z,101862.30
2018-12-31T11:12:59.110Z,101870.57
2018-12-31T11:15:28.161Z,101859.39
2018-12-31T11:17:57.082Z,101865.78
2018-12-31T11:20:26.088Z,101869.49
2018-12-31T11:22:54.422Z,101871.83
2018-12-31T11:25:22.766Z,101865.62
2018-12-31T11:27:51.113Z,101862.05
2018-12-31T11:30:19.512Z,101870.62
2018-12-31T11:32:47.854Z,101872.90
2018-12-31T11:35:16.189Z,101865.89
2018-12-31T11:37:44.513Z,101869.22
2018-12-31T11:40:13.237Z,101861.44
2018-12-31T11:42:41.583Z,101854.88
2018-12-31T11:45:10.546Z,101846.05
2018-12-31T11:47:38.855Z,101842.34
2018-12-31T11:50:07.354Z,101836.98
2018-12-31T11:52:35.702Z,101836.64
2018-12-31T11:55:04.188Z,101838.95
2018-12-31T11:57:32.535Z,101834.56
2018-12-31T12:00:00.841Z,101832.28
2018-12-31T12:02:29.186Z,101835.66
2018-12-31T12:04:57.534Z,101826.87
2018-12-31T12:07:25.874Z,101828.61
2018-12-31T12:09:54.221Z,101831.14
2018-12-31T12:12:22.743Z,101819.56
2018-12-31T12:14:51.087Z,101818.44
2018-12-31T12:17:19.430Z,101815.05
2018-12-31T12:19:47.749Z,101812.00
2018-12-31T12:22:16.071Z,101814.68
2018-12-31T12:24:44.809Z,101814.42
2018-12-31T12:27:13.172Z,101811.62
2018-12-31T12:29:41.859Z,101811.33
2018-12-31T12:32:10.206Z,101808.42
2018-12-31T12:34:38.537Z,101810.50
2018-12-31T12:37:06.993Z,101809.95
2018-12-31T12:39:35.355Z,101806.31
2018-12-31T12:42:03.745Z,101804.45
2018-12-31T12:44:32.200Z,101807.38
2018-12-31T12:47:00.583Z,101813.31
2018-12-31T12:49:28.950Z,101807.79
2018-12-31T12:51:57.306Z,101805.09
2018-12-31T12:54:25.682Z,101811.17
2018-12-31T12:56:54.002Z,101818.82
2018-12-31T12:59:22.342Z,101818.33
2018-12-31T13:01:50.693Z,101809.52
2018-12-31T13:04:19.114Z,101811.10
2018-12-31T13:06:47.440Z,101817.72
2018-12-31T13:09:15.854Z,101815.73
2018-12-31T13:11:44.200Z,101822.58
2018-12-31T13:14:12.549Z,101817.95
2018-12-31T13:16:41.189Z,101810.30
2018-12-31T13:19:10.075Z,101818.84
2018-12-31T13:21:39.110Z,101815.97
2018-12-31T13:24:07.589Z,101808.58
2018-12-31T13:26:43.368Z,101809.23
2018-12-31T13:29:06.271Z,101816.77
2018-12-31T13:31:34.660Z,101820.25
2018-12-31T13:34:03.097Z,101823.52
2018-12-31T13:36:31.467Z,101818.34
2018-12-31T13:39:00.405Z,101823.17
2018-12-31T13:41:29.065Z,101817.42
2018-12-31T13:43:57.409Z,101821.18
2018-12-31T13:46:25.790Z,101829.98
2018-12-31T13:48:54.103Z,101827.30
2018-12-31T13:51:22.466Z,101824.51
2018-12-31T13:53:51.235Z,101832.12
2018-12-31T13:56:19.579Z,101821.58
2018-12-31T13:58:48.009Z,101824.47
2018-12-31T14:01:16.354Z,101831.05
2018-12-31T14:03:44.715Z,101821.94
2018-12-31T14:06:13.045Z,101821.52
2018-12-31T14:08:41.376Z,101829.38
2018-12-31T14:11:09.981Z,101828.72
2018-12-31T14:13:38.304Z,101825.66
2018-12-31T14:16:06.768Z,101826.31
2018-12-31T14:18:35.066Z,101824.01
2018-12-31T14:21:03.417Z,101822.55
2018-12-31T14:23:31.770Z,101820.48
2018-12-31T14:26:00.141Z,101826.16
2018-12-31T14:28:28.572Z,101836.79
2018-12-31T14:30:57.028Z,101835.98
2018-12-31T14:33:25.385Z,101833.47
2018-12-31T14:35:53.751Z,101839.74
2018-12-31T14:38:22.154Z,101840.43
2018-12-31T14:40:50.586Z,101842.80
2018-12-31T14:43:18.928Z,101846.70
2018-12-31T14:45:47.578Z,101845.50
2018-12-31T14:48:15.964Z,101852.00
2018-12-31T14:50:44.305Z,101849.37
2018-12-31T14:53:12.731Z,101849.98
2018-12-31T14:55:41.737Z,101847.05
2018-12-31T14:58:10.393Z,101844.14
2018-12-31T15:00:38.727Z,101847.16
2018-12-31T15:03:07.082Z,101850.23
2018-12-31T15:05:35.561Z,101851.08
2018-12-31T15:08:04.009Z,101859.13
2018-12-31T15:10:32.354Z,101858.93
2018-12-31T15:13:00.698Z,101863.20
2018-12-31T15:15:29.105Z,101862.86
2018-12-31T15:17:57.426Z,101862.97
2018-12-31T15:20:25.756Z,101860.09
2018-12-31T15:22:54.170Z,101858.84
2018-12-31T15:25:22.609Z,101862.62
2018-12-31T15:27:51.019Z,101862.92
2018-12-31T15:30:19.426Z,101873.08
2018-12-31T15:32:50.101Z,101869.75
2018-12-31T15:35:18.435Z,101869.81
2018-12-31T15:37:46.831Z,101874.32
2018-12-31T15:40:15.151Z,101875.75
2018-12-31T15:42:43.498Z,101873.56
2018-12-31T15:45:12.429Z,101879.03
2018-12-31T15:47:41.102Z,101882.99
2018-12-31T15:50:09.694Z,101873.97
2018-12-31T15:52:38.296Z,101874.06
2018-12-31T15:55:06.667Z,101877.00
2018-12-31T15:57:35.106Z,101883.07
2018-12-31T16:00:04.773Z,101875.60
2018-12-31T16:02:33.546Z,101877.77
2018-12-31T16:05:02.020Z,101871.72
2018-12-31T16:07:30.457Z,101873.91
2018-12-31T16:09:58.788Z,101872.78
2018-12-31T16:12:27.172Z,101871.64
2018-12-31T16:14:55.647Z,101869.90
2018-12-31T16:17:24.060Z,101871.15
2018-12-31T16:19:52.415Z,101871.64
2018-12-31T16:22:21.606Z,101870.80
2018-12-31T16:24:49.927Z,101867.02
2018-12-31T16:27:18.260Z,101872.89
2018-12-31T16:29:46.642Z,101869.67
2018-12-31T16:32:15.180Z,101876.27
2018-12-31T16:34:43.586Z,101876.41
2018-12-31T16:37:12.133Z,101880.78
2018-12-31T16:39:40.493Z,101880.41
2018-12-31T16:42:09.050Z,101883.09
2018-12-31T16:44:37.520Z,101879.49
2018-12-31T16:47:05.973Z,101875.80
2018-12-31T16:49:34.359Z,101874.20
2018-12-31T16:52:03.470Z,101865.73
2018-12-31T16:54:32.550Z,101877.22
2018-12-31T16:57:00.957Z,101868.55
2018-12-31T16:59:29.297Z,101867.20
2018-12-31T17:01:57.629Z,101871.80
2018-12-31T17:04:26.001Z,101876.70
2018-12-31T17:06:54.431Z,101869.12
2018-12-31T17:09:22.800Z,101864.18
2018-12-31T17:11:51.160Z,101865.31
2018-12-31T17:14:19.518Z,101868.24
2018-12-31T17:16:47.848Z,101873.00
2018-12-31T17:19:16.213Z,101872.00
2018-12-31T17:21:44.726Z,101874.10
2018-12-31T17:24:13.213Z,101879.52
2018-12-31T17:26:41.527Z,101878.22
2018-12-31T17:29:09.885Z,101879.49
2018-12-31T17:31:38.211Z,101882.16
2018-12-31T17:34:06.993Z,101878.94
2018-12-31T17:36:35.345Z,101882.97
2018-12-31T17:39:06.559Z,101882.13
2018-12-31T17:41:34.889Z,101888.13
2018-12-31T17:44:03.309Z,101887.37
2018-12-31T17:46:31.666Z,101887.09
2018-12-31T17:49:00.202Z,101887.11
2018-12-31T17:51:28.613Z,101890.33
2018-12-31T17:53:56.960Z,101893.77
2018-12-31T17:56:25.362Z,101893.26
2018-12-31T17:58:53.703Z,101895.23
2018-12-31T18:01:22.129Z,101904.41
2018-12-31T18:03:50.872Z,101903.34
2018-12-31T18:06:19.718Z,101903.70
2018-12-31T18:08:48.040Z,101915.63
2018-12-31T18:11:16.650Z,101908.45
2018-12-31T18:13:45.278Z,101905.03
2018-12-31T18:16:13.990Z,101905.73
2018-12-31T18:18:42.323Z,101910.80
2018-12-31T18:21:10.798Z,101908.41
2018-12-31T18:23:39.139Z,101904.23
2018-12-31T18:26:07.817Z,101899.03
2018-12-31T18:28:36.156Z,101904.83
2018-12-31T18:31:04.516Z,101905.39
2018-12-31T18:33:32.882Z,101910.31
2018-12-31T18:36:01.232Z,101910.58
2018-12-31T18:38:29.620Z,101908.48
2018-12-31T18:40:59.053Z,101915.59
2018-12-31T18:43:27.423Z,101916.72
2018-12-31T18:45:55.770Z,101914.68
2018-12-31T18:48:24.117Z,101912.75
2018-12-31T18:50:52.492Z,101919.53
2018-12-31T18:53:20.865Z,101923.51
2018-12-31T18:55:49.210Z,101924.84
2018-12-31T18:58:17.547Z,101930.83
2018-12-31T19:00:45.898Z,101924.92
2018-12-31T19:03:14.720Z,101924.64
2018-12-31T19:05:43.479Z,101926.33
2018-12-31T19:08:12.015Z,101932.20
2018-12-31T19:10:40.360Z,101924.00
2018-12-31T19:13:08.767Z,101926.61
2018-12-31T19:15:37.106Z,101932.02
2018-12-31T19:18:05.461Z,101926.50
2018-12-31T19:20:33.781Z,101917.28
2018-12-31T19:23:02.198Z,101912.77
2018-12-31T19:25:30.649Z,101914.61
2018-12-31T19:27:59.010Z,101914.75
2018-12-31T19:30:27.497Z,101911.41
2018-12-31T19:32:56.454Z,101911.16
2018-12-31T19:35:24.801Z,101915.42
2018-12-31T19:37:53.150Z,101917.52
2018-12-31T19:40:21.490Z,101913.12
2018-12-31T19:42:49.851Z,101913.09
2018-12-31T19:45:18.361Z,101902.89
2018-12-31T19:47:46.700Z,101902.48
2018-12-31T19:50:41.163Z,101903.36
2018-12-31T19:53:09.513Z,101902.66
2018-12-31T19:55:37.849Z,101901.48
2018-12-31T19:58:06.191Z,101888.75
2018-12-31T20:00:34.540Z,101887.55
2018-12-31T20:03:02.989Z,101884.16
2018-12-31T20:05:31.329Z,101887.67
2018-12-31T20:07:59.975Z,101883.59
2018-12-31T20:10:28.295Z,101882.85
2018-12-31T20:12:56.717Z,101886.08
2018-12-31T20:15:25.070Z,101888.41
2018-12-31T20:17:53.460Z,101886.95
2018-12-31T20:20:21.910Z,101892.37
2018-12-31T20:22:50.948Z,101894.52
2018-12-31T20:25:19.410Z,101891.50
2018-12-31T20:27:47.750Z,101890.27
2018-12-31T20:30:16.444Z,101893.58
2018-12-31T20:32:44.758Z,101892.13
2018-12-31T20:35:13.975Z,101891.33
2018-12-31T20:37:42.318Z,101888.38
2018-12-31T20:40:10.777Z,101887.00
2018-12-31T20:42:39.122Z,101884.16
2018-12-31T20:45:07.663Z,101889.36
2018-12-31T20:47:35.996Z,101884.55
2018-12-31T20:50:06.166Z,101888.83
2018-12-31T20:52:34.522Z,101882.26
2018-12-31T20:55:02.876Z,101880.08
2018-12-31T20:57:31.293Z,101881.45
2018-12-31T20:59:59.682Z,101877.92
2018-12-31T21:02:27.992Z,101877.44
2018-12-31T21:04:56.354Z,101868.47
2018-12-31T21:07:24.674Z,101871.81
2018-12-31T21:09:53.033Z,101865.59
2018-12-31T21:12:21.377Z,101864.08
2018-12-31T21:14:49.753Z,101864.22
2018-12-31T21:17:18.490Z,101868.60
2018-12-31T21:19:46.857Z,101868.26
2018-12-31T21:22:15.198Z,101866.98
2018-12-31T21:24:43.762Z,101867.03
2018-12-31T21:27:12.299Z,101879.58
2018-12-31T21:29:40.638Z,101879.19
2018-12-31T21:32:09.566Z,101877.36
2018-12-31T21:34:37.915Z,101873.84
2018-12-31T21:37:06.267Z,101871.81
2018-12-31T21:39:34.641Z,101882.70
2018-12-31T21:42:02.949Z,101881.16
2018-12-31T21:44:31.580Z,101873.60
2018-12-31T21:46:59.942Z,101877.89
2018-12-31T21:49:28.360Z,101875.68
2018-12-31T21:51:56.717Z,101877.96
2018-12-31T21:54:25.118Z,101881.76
2018-12-31T21:56:53.513Z,101878.23
2018-12-31T21:59:21.837Z,101877.91
2018-12-31T22:01:50.209Z,101877.12
2018-12-31T22:04:18.534Z,101874.48
2018-12-31T22:06:46.977Z,101876.10
2018-12-31T22:09:15.665Z,101877.18
2018-12-31T22:11:44.427Z,101873.95
2018-12-31T22:14:13.181Z,101880.03
2018-12-31T22:16:41.521Z,101877.18
2018-12-31T22:19:09.861Z,101871.23
2018-12-31T22:21:38.231Z,101877.00
2018-12-31T22:24:06.999Z,101870.33
2018-12-31T22:26:35.364Z,101865.55
2018-12-31T22:29:03.785Z,101869.80
2018-12-31T22:31:32.168Z,101870.78
2018-12-31T22:34:00.515Z,101862.12
2018-12-31T22:36:28.925Z,101864.13
2018-12-31T22:38:57.333Z,101860.73
2018-12-31T22:41:25.688Z,101857.85
2018-12-31T22:43:54.017Z,101859.95
2018-12-31T22:46:22.379Z,101857.19
2018-12-31T22:48:50.723Z,101860.17
2018-12-31T22:51:19.455Z,101864.39
2018-12-31T22:53:47.802Z,101866.66
2018-12-31T22:56:16.127Z,101862.94
2018-12-31T22:58:44.559Z,101863.26
2018-12-31T23:01:13.826Z,101861.29
2018-12-31T23:03:44.281Z,101854.38
2018-12-31T23:06:12.655Z,101866.75
2018-12-31T23:08:41.005Z,101862.75
2018-12-31T23:11:09.387Z,101861.98
2018-12-31T23:13:37.721Z,101862.09
2018-12-31T23:16:06.251Z,101862.66
2018-12-31T23:18:34.583Z,101861.63
2018-12-31T23:21:02.955Z,101855.94
2018-12-31T23:23:31.335Z,101849.50
2018-12-31T23:25:59.677Z,101847.27
2018-12-31T23:28:28.397Z,101847.75
2018-12-31T23:30:57.148Z,101841.29
2018-12-31T23:33:25.667Z,101833.63
2018-12-31T23:35:54.085Z,101821.49
2018-12-31T23:38:22.483Z,101825.07
2018-12-31T23:40:50.826Z,101830.80
2018-12-31T23:43:19.392Z,101824.69
2018-12-31T23:45:47.755Z,101831.31
2018-12-31T23:48:16.414Z,101821.85
2018-12-31T23:50:44.773Z,101820.59
2018-12-31T23:53:13.768Z,101832.64
2018-12-31T23:55:42.097Z,101821.18
2018-12-31T23:58:10.513Z,101826.24
